createdAt,value
2023-01-21T00:01:49.114Z,101223.08
2023-01-21T00:04:22.350Z,101213.73
2023-01-21T00:06:55.055Z,101162.48
2023-01-21T00:09:28.298Z,101209.38
2023-01-21T00:12:03.094Z,101201.91
2023-01-21T00:14:33.881Z,101206.77
2023-01-21T00:17:06.715Z,101203.81
2023-01-21T00:19:39.133Z,101203.26
2023-01-21T00:22:11.780Z,101204.91
2023-01-21T00:24:44.216Z,101202.47
2023-01-21T00:27:16.596Z,101207.34
2023-01-21T00:29:49.089Z,101197.08
2023-01-21T00:32:25.281Z,101217.69
2023-01-21T00:34:58.112Z,101223.88
2023-01-21T00:37:30.821Z,101224.59
2023-01-21T00:40:05.602Z,101198.42
2023-01-21T00:42:38.382Z,101223.08
2023-01-21T00:45:12.666Z,101219.30
2023-01-21T00:47:45.218Z,101225.80
2023-01-21T00:50:18.246Z,101228.64
2023-01-21T00:52:50.756Z,101232.23
2023-01-21T00:55:23.258Z,101250.04
2023-01-21T00:57:56.226Z,101249.14
2023-01-21T01:00:29.530Z,101253.91
2023-01-21T01:03:02.281Z,101259.77
2023-01-21T01:05:34.937Z,101261.14
2023-01-21T01:08:08.095Z,101260.41
2023-01-21T01:10:41.425Z,101264.11
2023-01-21T01:13:13.931Z,101274.06
2023-01-21T01:15:47.619Z,101273.42
2023-01-21T01:18:20.098Z,101267.54
2023-01-21T01:20:52.552Z,101270.13
2023-01-21T01:23:25.362Z,101268.73
2023-01-21T01:26:03.251Z,101267.94
2023-01-21T01:28:36.666Z,101265.42
2023-01-21T01:31:12.970Z,101268.24
2023-01-21T01:33:45.428Z,101269.12
2023-01-21T01:36:20.407Z,101270.40
2023-01-21T01:38:54.193Z,101252.45
2023-01-21T01:41:30.151Z,101268.91
2023-01-21T01:44:04.461Z,101269.36
2023-01-21T01:46:38.098Z,101240.59
2023-01-21T01:49:14.917Z,101268.52
2023-01-21T01:51:51.594Z,101261.05
2023-01-21T01:54:28.701Z,101268.22
2023-01-21T01:57:06.956Z,101265.73
2023-01-21T01:59:40.355Z,101267.86
2023-01-21T02:02:15.892Z,101274.90
2023-01-21T02:04:52.353Z,101270.18
2023-01-21T02:07:27.824Z,101262.20
2023-01-21T02:10:00.903Z,101264.68
2023-01-21T02:12:33.786Z,101260.39
2023-01-21T02:15:08.493Z,101258.48
2023-01-21T02:17:45.946Z,101262.58
2023-01-21T02:20:44.875Z,101258.05
2023-01-21T02:23:21.868Z,101256.00
2023-01-21T02:26:25.503Z,101263.81
2023-01-21T02:29:30.698Z,101260.98
2023-01-21T02:32:40.631Z,101258.11
2023-01-21T02:35:19.875Z,101252.33
2023-01-21T02:38:02.464Z,101234.58
2023-01-21T02:40:40.202Z,101256.44
2023-01-21T02:43:19.439Z,101229.91
2023-01-21T02:45:56.731Z,101255.80
2023-01-21T02:48:34.504Z,101243.42
2023-01-21T02:51:07.920Z,101240.88
2023-01-21T02:53:40.604Z,101256.91
2023-01-21T02:56:17.530Z,101253.13
2023-01-21T02:58:53.794Z,101248.67
2023-01-21T03:01:37.226Z,101252.42
2023-01-21T03:04:32.009Z,101249.58
2023-01-21T03:07:12.557Z,101247.72
2023-01-21T03:09:45.161Z,101245.38
2023-01-21T03:12:38.917Z,101246.77
2023-01-21T03:15:34.137Z,101255.80
2023-01-21T03:18:07.750Z,101253.38
2023-01-21T03:20:44.533Z,101260.55
2023-01-21T03:23:21.669Z,101257.83
2023-01-21T03:25:54.984Z,101252.85
2023-01-21T03:28:30.879Z,101254.50
2023-01-21T03:31:06.806Z,101253.92
2023-01-21T03:33:46.507Z,101253.35
2023-01-21T03:36:28.013Z,101255.92
2023-01-21T03:39:03.068Z,101253.65
2023-01-21T03:41:38.865Z,101253.86
2023-01-21T03:44:11.952Z,101251.98
2023-01-21T03:46:50.767Z,101253.19
2023-01-21T03:49:31.341Z,101227.30
2023-01-21T03:52:06.120Z,101240.56
2023-01-21T03:54:39.781Z,101246.21
2023-01-21T03:57:12.567Z,101248.38
2023-01-21T03:59:45.165Z,101248.90
2023-01-21T04:02:20.476Z,101248.45
2023-01-21T04:04:55.265Z,101251.13
2023-01-21T04:07:28.237Z,101250.94
2023-01-21T04:10:00.602Z,101252.04
2023-01-21T04:12:33.543Z,101251.94
2023-01-21T04:15:07.379Z,101250.68
2023-01-21T04:17:39.948Z,101245.69
2023-01-21T04:20:15.604Z,101242.81
2023-01-21T04:22:48.347Z,101241.91
2023-01-21T04:25:20.931Z,101237.59
2023-01-21T04:27:54.927Z,101234.20
2023-01-21T04:30:27.614Z,101238.36
2023-01-21T04:33:00.151Z,101237.20
2023-01-21T04:35:32.478Z,101231.88
2023-01-21T04:38:05.109Z,101232.04
2023-01-21T04:40:37.901Z,101227.56
2023-01-21T04:43:10.242Z,101228.61
2023-01-21T04:45:43.117Z,101231.95
2023-01-21T05:03:40.429Z,101214.69
2023-01-21T05:06:14.262Z,101218.34
2023-01-21T05:08:46.762Z,101217.66
2023-01-21T05:11:20.972Z,101207.81
2023-01-21T05:13:53.325Z,101214.46
2023-01-21T05:16:26.728Z,101213.42
2023-01-21T05:18:59.371Z,101210.54
2023-01-21T05:21:32.007Z,101213.47
2023-01-21T05:24:04.861Z,101196.98
2023-01-21T05:26:37.443Z,101219.73
2023-01-21T05:29:10.201Z,101219.61
2023-01-21T05:31:43.605Z,101219.73
2023-01-21T05:34:16.318Z,101228.86
2023-01-21T05:36:48.784Z,101224.58
2023-01-21T05:39:21.087Z,101215.95
2023-01-21T05:41:53.817Z,101215.59
2023-01-21T05:44:28.517Z,101210.57
2023-01-21T05:47:01.820Z,101207.27
2023-01-21T05:49:34.169Z,101210.03
2023-01-21T05:52:07.103Z,101210.17
2023-01-21T05:54:49.174Z,101207.23
2023-01-21T05:57:28.742Z,101206.53
2023-01-21T06:00:01.476Z,101196.76
2023-01-21T06:02:33.976Z,101194.30
2023-01-21T06:05:07.499Z,101194.34
2023-01-21T06:07:40.020Z,101197.98
2023-01-21T06:10:13.865Z,101195.09
2023-01-21T06:12:46.325Z,101206.48
2023-01-21T06:15:18.702Z,101201.41
2023-01-21T06:17:51.389Z,101203.19
2023-01-21T06:20:24.236Z,101197.60
2023-01-21T06:22:57.110Z,101202.45
2023-01-21T06:25:30.204Z,101202.01
2023-01-21T06:28:03.002Z,101191.40
2023-01-21T06:30:35.399Z,101209.09
2023-01-21T06:33:07.857Z,101209.98
2023-01-21T06:35:40.332Z,101198.80
2023-01-21T06:38:12.830Z,101214.23
2023-01-21T06:40:45.988Z,101218.98
2023-01-21T06:43:18.845Z,101226.19
2023-01-21T06:45:51.531Z,101222.15
2023-01-21T06:48:25.971Z,101222.40
2023-01-21T06:50:57.572Z,101225.07
2023-01-21T06:53:30.464Z,101222.59
2023-01-21T06:56:02.936Z,101221.89
2023-01-21T06:58:35.453Z,101210.61
2023-01-21T07:01:08.071Z,101213.77
2023-01-21T07:03:41.587Z,101218.25
2023-01-21T07:06:14.436Z,101201.11
2023-01-21T07:08:46.922Z,101212.73
2023-01-21T07:11:19.300Z,101206.39
2023-01-21T07:13:51.693Z,101191.88
2023-01-21T07:16:24.205Z,101201.20
2023-01-21T07:18:57.077Z,101201.02
2023-01-21T07:21:32.405Z,101198.21
2023-01-21T07:24:05.000Z,101199.80
2023-01-21T07:26:38.269Z,101180.96
2023-01-21T07:29:13.619Z,101193.58
2023-01-21T07:31:49.145Z,101197.40
2023-01-21T07:34:21.669Z,101197.56
2023-01-21T07:36:54.134Z,101197.06
2023-01-21T07:39:27.050Z,101189.88
2023-01-21T07:41:59.452Z,101191.93
2023-01-21T07:44:32.496Z,101185.30
2023-01-21T07:47:04.898Z,101183.36
2023-01-21T07:49:38.044Z,101183.13
2023-01-21T07:52:10.716Z,101183.98
2023-01-21T07:54:43.279Z,101182.20
2023-01-21T07:57:16.569Z,101175.41
2023-01-21T07:59:49.051Z,101179.02
2023-01-21T08:02:21.611Z,101174.36
2023-01-21T08:04:54.287Z,101160.32
2023-01-21T08:07:26.756Z,101154.91
2023-01-21T08:09:59.374Z,101168.61
2023-01-21T08:12:31.806Z,101158.61
2023-01-21T08:15:04.548Z,101147.34
2023-01-21T08:17:38.493Z,101158.48
2023-01-21T08:20:14.414Z,101157.96
2023-01-21T08:22:46.861Z,101151.24
2023-01-21T08:25:19.674Z,101150.98
2023-01-21T08:27:52.269Z,101146.69
2023-01-21T08:30:24.954Z,101143.92
2023-01-21T08:32:57.463Z,101135.02
2023-01-21T08:35:30.071Z,101133.23
2023-01-21T08:38:02.467Z,101133.93
2023-01-21T08:40:35.331Z,101127.31
2023-01-21T08:43:09.218Z,101128.16
2023-01-21T08:45:41.922Z,101120.08
2023-01-21T08:48:14.573Z,101115.27
2023-01-21T08:50:47.508Z,101114.04
2023-01-21T08:53:19.986Z,101112.11
2023-01-21T08:55:52.377Z,101111.35
2023-01-21T08:58:25.127Z,101112.00
2023-01-21T09:00:57.970Z,101111.46
2023-01-21T09:03:30.573Z,101112.47
2023-01-21T09:06:05.858Z,101113.81
2023-01-21T09:08:38.361Z,101117.44
2023-01-21T09:11:11.276Z,101107.74
2023-01-21T09:13:44.678Z,101112.59
2023-01-21T09:16:18.894Z,101102.71
2023-01-21T09:18:52.359Z,101099.05
2023-01-21T09:21:27.730Z,101095.33
2023-01-21T09:24:00.132Z,101072.15
2023-01-21T09:26:32.656Z,101091.66
2023-01-21T09:29:05.137Z,101087.52
2023-01-21T09:31:37.739Z,101085.23
2023-01-21T09:34:11.969Z,101080.27
2023-01-21T09:36:44.582Z,101046.29
2023-01-21T09:39:17.041Z,101077.55
2023-01-21T09:41:53.576Z,101066.85
2023-01-21T09:44:30.249Z,101062.39
2023-01-21T09:47:07.698Z,101060.85
2023-01-21T09:49:43.471Z,101059.88
2023-01-21T09:52:30.604Z,101055.54
2023-01-21T09:55:05.810Z,101046.97
2023-01-21T09:58:16.905Z,101041.55
2023-01-21T10:01:00.600Z,101037.27
2023-01-21T10:03:45.762Z,101033.68
2023-01-21T10:06:21.405Z,101020.36
2023-01-21T10:09:16.984Z,101018.05
2023-01-21T10:12:08.377Z,101014.21
2023-01-21T10:15:04.260Z,101011.75
2023-01-21T10:17:51.896Z,101004.52
2023-01-21T10:20:29.151Z,101003.06
2023-01-21T10:23:08.027Z,101002.37
2023-01-21T10:25:42.174Z,101000.77
2023-01-21T10:28:20.774Z,101001.02
2023-01-21T10:30:55.475Z,101013.29
2023-01-21T10:33:27.234Z,101019.05
2023-01-21T10:36:28.094Z,101016.64
2023-01-21T10:39:08.806Z,101011.31
2023-01-21T10:41:55.955Z,101012.36
2023-01-21T10:44:36.107Z,101009.54
2023-01-21T10:47:19.776Z,100991.89
2023-01-21T10:50:01.700Z,101011.21
2023-01-21T10:52:40.863Z,101012.88
2023-01-21T10:55:29.329Z,101012.98
2023-01-21T10:58:09.618Z,101009.86
2023-01-21T11:00:45.404Z,101011.12
2023-01-21T11:03:25.097Z,101013.52
2023-01-21T11:05:58.995Z,100997.05
2023-01-21T11:08:31.949Z,101017.22
2023-01-21T11:11:06.682Z,101015.20
2023-01-21T11:13:37.452Z,101010.65
2023-01-21T11:16:10.961Z,101010.40
2023-01-21T11:18:44.830Z,101011.43
2023-01-21T11:21:21.476Z,101003.46
2023-01-21T11:24:01.964Z,101009.05
2023-01-21T11:26:36.488Z,101007.75
2023-01-21T11:29:13.648Z,101004.52
2023-01-21T11:31:48.922Z,101003.66
2023-01-21T11:34:23.489Z,101002.46
2023-01-21T11:37:01.519Z,101004.80
2023-01-21T11:39:36.465Z,101005.30
2023-01-21T11:42:15.194Z,101006.77
2023-01-21T11:44:56.003Z,101008.30
2023-01-21T11:47:40.749Z,101010.20
2023-01-21T11:50:18.348Z,101002.73
2023-01-21T11:53:11.378Z,101005.80
2023-01-21T11:55:46.972Z,101002.79
2023-01-21T11:58:26.622Z,100999.94
2023-01-21T12:01:01.203Z,100982.91
2023-01-21T12:03:37.568Z,100998.92
2023-01-21T12:06:11.242Z,100996.82
2023-01-21T12:08:45.998Z,100996.20
2023-01-21T12:11:20.384Z,100991.75
2023-01-21T12:13:59.464Z,100989.79
2023-01-21T12:16:35.259Z,100990.80
2023-01-21T12:19:46.281Z,100989.86
2023-01-21T12:22:44.392Z,100987.77
2023-01-21T12:25:38.274Z,100986.46
2023-01-21T12:28:35.077Z,100993.75
2023-01-21T12:31:25.155Z,100985.00
2023-01-21T12:34:05.415Z,100984.70
2023-01-21T12:36:44.235Z,100985.76
2023-01-21T12:39:22.893Z,100984.29
2023-01-21T12:42:03.453Z,100984.29
2023-01-21T12:44:41.576Z,100980.87
2023-01-21T12:47:21.951Z,100982.89
2023-01-21T12:50:05.332Z,100965.48
2023-01-21T12:52:45.776Z,100981.16
2023-01-21T12:55:24.562Z,100983.98
2023-01-21T12:58:02.564Z,100986.78
2023-01-21T13:00:39.273Z,100986.30
2023-01-21T13:03:28.811Z,100987.56
2023-01-21T13:06:05.887Z,100990.24
2023-01-21T13:08:48.692Z,100986.06
2023-01-21T13:11:27.450Z,100991.20
2023-01-21T13:14:21.132Z,100990.68
2023-01-21T13:16:59.213Z,100990.45
2023-01-21T13:19:31.944Z,100993.02
2023-01-21T13:22:11.177Z,100994.93
2023-01-21T13:25:05.863Z,100997.18
2023-01-21T13:27:46.850Z,100997.11
2023-01-21T13:30:30.696Z,100991.80
2023-01-21T13:33:22.974Z,100998.05
2023-01-21T13:36:09.306Z,100996.55
2023-01-21T13:38:48.227Z,100999.95
2023-01-21T13:41:32.751Z,100994.40
2023-01-21T13:44:28.977Z,100998.23
2023-01-21T13:47:10.584Z,100998.83
2023-01-21T13:50:06.099Z,100998.95
2023-01-21T13:52:48.885Z,101002.20
2023-01-21T13:55:36.623Z,100999.14
2023-01-21T13:58:12.762Z,100996.57
2023-01-21T14:00:50.552Z,100996.41
2023-01-21T14:03:34.478Z,100983.02
2023-01-21T14:06:14.693Z,101004.19
2023-01-21T14:08:52.564Z,101008.19
2023-01-21T14:11:30.659Z,101004.80
2023-01-21T14:14:35.798Z,101007.54
2023-01-21T14:17:28.770Z,101006.06
2023-01-21T14:20:15.925Z,101009.97
2023-01-21T14:23:02.832Z,101011.74
2023-01-21T14:25:47.815Z,101010.98
2023-01-21T14:28:22.111Z,101009.05
2023-01-21T14:31:02.714Z,101013.15
2023-01-21T14:33:44.453Z,100995.31
2023-01-21T14:36:24.990Z,101001.17
2023-01-21T14:39:08.687Z,101017.08
2023-01-21T14:42:09.339Z,101015.32
2023-01-21T14:44:45.244Z,101024.73
2023-01-21T14:47:23.198Z,101025.66
2023-01-21T14:49:57.634Z,101031.33
2023-01-21T14:52:34.107Z,101033.05
2023-01-21T14:55:26.047Z,101041.33
2023-01-21T14:58:00.828Z,101041.49
2023-01-21T15:00:36.419Z,101041.06
2023-01-21T15:03:19.605Z,101047.88
2023-01-21T15:05:56.352Z,101047.81
2023-01-21T15:08:32.856Z,101052.95
2023-01-21T15:11:08.349Z,101053.14
2023-01-21T15:13:42.704Z,101041.57
2023-01-21T15:16:35.200Z,101059.45
2023-01-21T15:19:24.403Z,101062.95
2023-01-21T15:22:20.913Z,101069.84
2023-01-21T15:25:20.499Z,101074.45
2023-01-21T15:28:29.837Z,101070.33
2023-01-21T15:31:05.021Z,101070.69
2023-01-21T15:33:45.874Z,101073.02
2023-01-21T15:36:28.509Z,101076.27
2023-01-21T15:39:03.497Z,101077.64
2023-01-21T15:41:50.939Z,101081.05
2023-01-21T15:44:45.436Z,101079.44
2023-01-21T15:47:31.146Z,101079.41
2023-01-21T15:50:12.724Z,101086.72
2023-01-21T15:52:54.786Z,101091.14
2023-01-21T15:55:43.912Z,101083.61
2023-01-21T15:58:26.025Z,101098.67
2023-01-21T16:01:07.182Z,101100.29
2023-01-21T16:03:44.555Z,101106.88
2023-01-21T16:06:31.859Z,101110.85
2023-01-21T16:09:09.702Z,101114.27
2023-01-21T16:11:57.670Z,101118.13
2023-01-21T16:14:43.751Z,101119.53
2023-01-21T16:17:22.443Z,101118.48
2023-01-21T16:19:58.507Z,101123.69
2023-01-21T16:22:34.711Z,101123.90
2023-01-21T16:25:10.858Z,101124.43
2023-01-21T16:27:48.929Z,101127.21
2023-01-21T16:30:24.300Z,101126.05
2023-01-21T16:33:12.420Z,101133.50
2023-01-21T16:35:48.471Z,101135.66
2023-01-21T16:38:25.472Z,101140.66
2023-01-21T16:41:24.257Z,101150.60
2023-01-21T16:44:02.182Z,101152.91
2023-01-21T16:46:37.716Z,101156.35
2023-01-21T16:49:16.859Z,101157.57
2023-01-21T16:51:54.155Z,101143.03
2023-01-21T16:54:28.697Z,101166.23
2023-01-21T16:57:03.278Z,101162.38
2023-01-21T16:59:41.760Z,101168.08
2023-01-21T17:02:21.189Z,101172.39
2023-01-21T17:04:55.705Z,101176.83
2023-01-21T17:07:32.332Z,101182.15
2023-01-21T17:10:07.876Z,101185.23
2023-01-21T17:12:40.625Z,101190.42
2023-01-21T17:15:21.422Z,101189.46
2023-01-21T17:17:58.538Z,101193.83
2023-01-21T17:20:43.731Z,101181.10
2023-01-21T17:23:22.141Z,101203.62
2023-01-21T17:26:03.437Z,101211.93
2023-01-21T17:28:41.893Z,101209.03
2023-01-21T17:31:27.622Z,101210.61
2023-01-21T17:34:23.289Z,101209.79
2023-01-21T17:36:59.934Z,101218.73
2023-01-21T17:40:02.209Z,101222.80
2023-01-21T17:42:47.069Z,101227.89
2023-01-21T17:45:28.452Z,101232.74
2023-01-21T17:48:14.121Z,101235.66
2023-01-21T17:50:50.983Z,101242.06
2023-01-21T17:53:28.072Z,101249.49
2023-01-21T17:56:03.648Z,101241.77
2023-01-21T17:58:56.207Z,101258.28
2023-01-21T18:01:30.220Z,101266.33
2023-01-21T18:04:02.752Z,101269.73
2023-01-21T18:06:35.846Z,101267.69
2023-01-21T18:09:11.532Z,101271.29
2023-01-21T18:11:45.609Z,101276.34
2023-01-21T18:14:20.287Z,101277.84
2023-01-21T18:16:53.566Z,101283.30
2023-01-21T18:19:38.021Z,101284.71
2023-01-21T18:22:18.912Z,101288.54
2023-01-21T18:24:51.452Z,101288.96
2023-01-21T18:27:26.026Z,101296.59
2023-01-21T18:29:59.392Z,101295.16
2023-01-21T18:32:32.096Z,101294.05
2023-01-21T18:35:05.218Z,101300.45
2023-01-21T18:37:38.392Z,101302.04
2023-01-21T18:40:17.837Z,101304.11
2023-01-21T18:42:52.559Z,101304.61
2023-01-21T18:45:30.353Z,101303.61
2023-01-21T18:48:04.145Z,101310.05
2023-01-21T18:50:37.108Z,101310.54
2023-01-21T18:53:10.116Z,101308.60
2023-01-21T18:55:45.501Z,101309.70
2023-01-21T18:58:18.716Z,101311.08
2023-01-21T19:00:51.975Z,101318.95
2023-01-21T19:03:24.791Z,101316.23
2023-01-21T19:05:58.124Z,101323.28
2023-01-21T19:08:32.402Z,101328.94
2023-01-21T19:11:05.503Z,101330.66
2023-01-21T19:13:38.453Z,101333.73
2023-01-21T19:16:18.014Z,101330.16
2023-01-21T19:18:51.734Z,101332.98
2023-01-21T19:21:24.701Z,101333.27
2023-01-21T19:23:57.894Z,101329.98
2023-01-21T19:26:31.265Z,101325.84
2023-01-21T19:29:05.221Z,101338.95
2023-01-21T19:31:38.354Z,101338.34
2023-01-21T19:34:13.234Z,101346.77
2023-01-21T19:36:47.612Z,101331.64
2023-01-21T19:39:25.512Z,101351.67
2023-01-21T19:42:07.928Z,101359.37
2023-01-21T19:44:42.108Z,101365.06
2023-01-21T19:47:20.984Z,101363.61
2023-01-21T19:49:54.603Z,101370.54
2023-01-21T19:52:28.063Z,101379.20
2023-01-21T19:55:01.026Z,101383.50
2023-01-21T19:57:34.236Z,101388.82
2023-01-21T20:00:20.786Z,101391.42
2023-01-21T20:02:53.921Z,101389.44
2023-01-21T20:05:28.765Z,101392.77
2023-01-21T20:08:03.830Z,101400.23
2023-01-21T20:10:37.032Z,101399.66
2023-01-21T20:13:13.588Z,101402.92
2023-01-21T20:15:48.752Z,101399.76
2023-01-21T20:18:24.837Z,101403.05
2023-01-21T20:20:58.307Z,101407.98
2023-01-21T20:23:32.741Z,101408.24
2023-01-21T20:26:08.905Z,101406.66
2023-01-21T20:28:46.977Z,101404.97
2023-01-21T20:31:20.412Z,101410.52
2023-01-21T20:33:52.919Z,101425.65
2023-01-21T20:36:28.045Z,101412.83
2023-01-21T20:39:01.564Z,101430.35
2023-01-21T20:41:35.147Z,101438.92
2023-01-21T20:44:08.182Z,101444.80
2023-01-21T20:46:43.508Z,101441.51
2023-01-21T20:49:16.734Z,101447.05
2023-01-21T20:51:50.084Z,101453.14
2023-01-21T20:54:24.861Z,101453.52
2023-01-21T20:56:58.220Z,101457.70
2023-01-21T20:59:31.169Z,101458.36
2023-01-21T21:02:04.310Z,101468.40
2023-01-21T21:04:37.472Z,101468.88
2023-01-21T21:07:15.997Z,101471.64
2023-01-21T21:09:49.886Z,101456.95
2023-01-21T21:12:23.125Z,101476.78
2023-01-21T21:14:56.007Z,101477.34
2023-01-21T21:17:29.212Z,101446.66
2023-01-21T21:20:02.516Z,101478.56
2023-01-21T21:22:35.929Z,101481.35
2023-01-21T21:25:11.311Z,101485.45
2023-01-21T21:27:44.515Z,101483.58
2023-01-21T21:30:21.654Z,101452.41
2023-01-21T21:32:54.845Z,101488.20
2023-01-21T21:35:30.286Z,101495.06
2023-01-21T21:38:07.448Z,101497.73
2023-01-21T21:40:42.552Z,101499.29
2023-01-21T21:43:39.985Z,101496.39
2023-01-21T21:46:31.898Z,101501.11
2023-01-21T21:49:04.970Z,101499.18
2023-01-21T21:51:39.150Z,101499.73
2023-01-21T21:54:12.629Z,101499.50
2023-01-21T21:56:46.048Z,101496.63
2023-01-21T21:59:19.292Z,101505.11
2023-01-21T22:01:52.368Z,101510.88
2023-01-21T22:04:25.686Z,101508.81
2023-01-21T22:06:58.911Z,101512.60
2023-01-21T22:09:34.087Z,101512.27
2023-01-21T22:12:09.128Z,101518.65
2023-01-21T22:14:45.600Z,101526.80
2023-01-21T22:17:18.599Z,101528.35
2023-01-21T22:19:51.736Z,101531.85
2023-01-21T22:22:25.380Z,101531.59
2023-01-21T22:24:58.858Z,101537.45
2023-01-21T22:27:31.849Z,101522.86
2023-01-21T22:30:05.451Z,101540.42
2023-01-21T22:32:39.351Z,101544.02
2023-01-21T22:35:15.494Z,101549.44
2023-01-21T22:37:48.928Z,101553.45
2023-01-21T22:40:21.559Z,101555.17
2023-01-21T22:42:54.133Z,101537.31
2023-01-21T22:45:27.357Z,101556.47
2023-01-21T22:47:59.876Z,101551.30
2023-01-21T22:50:32.480Z,101559.35
2023-01-21T22:53:05.099Z,101556.56
2023-01-21T22:55:38.305Z,101559.77
2023-01-21T22:58:10.782Z,101566.96
2023-01-21T23:00:43.672Z,101572.63
2023-01-21T23:03:16.178Z,101574.92
2023-01-21T23:05:49.277Z,101572.85
2023-01-21T23:08:21.973Z,101579.63
2023-01-21T23:11:03.407Z,101584.63
2023-01-21T23:13:36.739Z,101583.32
2023-01-21T23:16:12.867Z,101584.03
2023-01-21T23:18:46.323Z,101583.89
2023-01-21T23:21:20.859Z,101579.55
2023-01-21T23:23:55.196Z,101586.90
2023-01-21T23:26:30.173Z,101587.33
2023-01-21T23:29:05.531Z,101582.52
2023-01-21T23:31:38.791Z,101585.06
2023-01-21T23:34:15.575Z,101596.66
2023-01-21T23:36:48.541Z,101585.52
2023-01-21T23:39:21.383Z,101594.31
2023-01-21T23:41:56.132Z,101589.45
2023-01-21T23:44:31.620Z,101593.67
2023-01-21T23:47:04.445Z,101577.26
2023-01-21T23:49:50.788Z,101595.57
2023-01-21T23:52:23.326Z,101607.34
2023-01-21T23:54:56.283Z,101612.73
2023-01-21T23:57:29.143Z,101613.26
